Time;durP1;ratioP1;P1;durP2;ratioP2;P2;SDS_P1;SDS_P2;PMS_P1;PMS_P2;Temp;Humidity;BMP_temperature;BMP_pressure;BME280_temperature;BME280_humidity;BME280_pressure;Samples;Min_cycle;Max_cycle;Signal;HPM_P1;HPM_P2
2021/08/03 00:02:08;;;;;;;6.63;6.03;;;;;;;24.34;74.10;100632.19;4985668;28;102010;-57
2021/08/03 00:04:39;;;;;;;6.50;5.90;;;;;;;24.34;74.07;100628.56;4986929;28;103453;-57
2021/08/03 00:07:08;;;;;;;7.07;6.10;;;;;;;24.32;74.02;100630.94;5000415;28;102570;-57
2021/08/03 00:09:37;;;;;;;6.90;6.30;;;;;;;24.32;74.38;100630.94;4983335;28;103031;-56
2021/08/03 00:12:07;;;;;;;6.80;6.10;;;;;;;24.33;74.03;100626.97;4985850;28;102747;-57
2021/08/03 00:14:35;;;;;;;6.78;6.07;;;;;;;24.32;74.27;100642.06;4989453;28;102031;-56
2021/08/03 00:17:03;;;;;;;7.15;6.45;;;;;;;24.33;74.15;100649.22;4988376;28;102642;-56
2021/08/03 00:19:30;;;;;;;6.60;6.03;;;;;;;24.33;74.02;100657.56;4982366;28;103863;-57
2021/08/03 00:21:56;;;;;;;6.63;6.03;;;;;;;24.32;74.02;100665.09;4978233;28;103347;-56
2021/08/03 00:24:26;;;;;;;6.72;6.10;;;;;;;24.32;74.13;100653.19;4995011;28;102575;-57
2021/08/03 00:26:53;;;;;;;8.23;5.93;;;;;;;24.30;74.06;100658.28;4989483;28;102352;-56
2021/08/03 00:29:21;;;;;;;6.78;6.18;;;;;;;24.32;74.23;100661.53;4985148;28;103877;-56
2021/08/03 00:31:50;;;;;;;6.85;6.25;;;;;;;24.30;74.14;100673.00;4987780;28;102127;-56
2021/08/03 00:34:17;;;;;;;6.70;6.10;;;;;;;24.29;74.15;100687.28;4989061;28;102209;-56
2021/08/03 00:36:44;;;;;;;7.10;6.43;;;;;;;24.30;74.24;100691.66;4982261;28;102293;-56
2021/08/03 00:39:11;;;;;;;7.57;6.88;;;;;;;24.30;74.05;100689.69;4985818;28;103869;-56
2021/08/03 00:41:44;;;;;;;8.00;7.20;;;;;;;24.30;74.25;100689.69;4988517;28;102744;-56
2021/08/03 00:44:11;;;;;;;8.43;7.10;;;;;;;24.31;74.13;100693.28;4987019;28;102026;-56
2021/08/03 00:46:42;;;;;;;7.40;6.70;;;;;;;24.29;74.36;100688.06;4994821;28;102654;-56
2021/08/03 00:49:09;;;;;;;6.82;6.03;;;;;;;24.31;74.15;100679.38;4988760;28;104040;-56
2021/08/03 00:51:36;;;;;;;7.22;6.32;;;;;;;24.32;74.03;100658.75;4987878;28;102541;-56
2021/08/03 00:54:03;;;;;;;7.43;6.40;;;;;;;24.32;74.26;100653.19;4985233;28;102521;-56
2021/08/03 00:56:30;;;;;;;7.72;6.30;;;;;;;24.32;74.18;100642.84;4984748;28;102633;-57
2021/08/03 00:58:57;;;;;;;7.15;6.07;;;;;;;24.30;73.87;100636.03;4985841;28;103989;-57
2021/08/03 01:01:23;;;;;;;7.50;6.75;;;;;;;24.31;73.97;100621.78;4985802;28;102195;-56
2021/08/03 01:03:51;;;;;;;7.38;6.07;;;;;;;24.31;74.10;100612.66;4984800;28;102584;-57
2021/08/03 01:06:27;;;;;;;6.73;5.90;;;;;;;24.31;74.01;100607.09;4981526;28;102604;-56
2021/08/03 01:09:00;;;;;;;7.13;6.40;;;;;;;24.30;74.08;100603.47;4978257;28;103993;-56
2021/08/03 01:11:41;;;;;;;7.70;7.00;;;;;;;24.29;74.26;100592.72;4982777;28;102539;-56
2021/08/03 01:14:14;;;;;;;8.55;6.97;;;;;;;24.29;74.22;100592.72;4985158;28;102307;-56
2021/08/03 01:16:46;;;;;;;10.70;7.32;;;;;;;24.31;74.19;100596.75;4987264;28;102359;-56
2021/08/03 01:19:21;;;;;;;7.97;7.18;;;;;;;24.31;74.22;100595.97;4973648;28;103938;-56
2021/08/03 01:21:50;;;;;;;8.68;7.53;;;;;;;24.28;74.12;100603.06;4987039;28;102500;-56
2021/08/03 01:25:05;;;;;;;9.23;7.53;;;;;;;24.29;74.14;100587.16;4983106;28;103072;-57
2021/08/03 01:28:11;;;;;;;9.13;7.07;;;;;;;24.29;74.03;100592.72;4987061;28;102255;-56
2021/08/03 01:30:42;;;;;;;9.68;7.30;;;;;;;24.28;74.14;100599.47;4987162;28;103880;-56
2021/08/03 01:33:11;;;;;;;8.20;6.50;;;;;;;24.26;73.97;100599.81;4986289;28;103480;-56
2021/08/03 01:35:40;;;;;;;8.68;7.13;;;;;;;24.27;74.18;100606.19;4988132;28;102507;-57
2021/08/03 01:38:07;;;;;;;7.97;6.88;;;;;;;24.29;74.12;100603.84;4989752;28;102503;-57
2021/08/03 01:40:35;;;;;;;7.35;6.65;;;;;;;24.28;74.03;100608.63;4989287;28;104321;-57
2021/08/03 01:43:03;;;;;;;7.13;6.53;;;;;;;24.29;74.14;100609.41;4990115;28;103682;-56
2021/08/03 01:45:32;;;;;;;7.17;6.53;;;;;;;24.29;73.90;100620.53;4980054;28;102844;-57
2021/08/03 01:48:01;;;;;;;7.50;6.80;;;;;;;24.28;73.87;100635.63;4991332;28;102253;-56
2021/08/03 01:50:28;;;;;;;7.30;6.60;;;;;;;24.28;74.04;100641.97;4988187;28;103664;-57
2021/08/03 01:52:57;;;;;;;7.40;6.70;;;;;;;24.28;74.21;100652.31;4985761;28;102474;-56
2021/08/03 01:55:24;;;;;;;;;;;;;;;24.27;74.00;100661.78;4989827;28;102565;-57
2021/08/03 01:57:52;;;;;;;7.35;6.60;;;;;;;24.28;74.02;100680.13;4990371;28;103210;-56
2021/08/03 02:00:20;;;;;;;7.70;6.57;;;;;;;24.29;74.17;100665.03;4989129;28;103913;-56
2021/08/03 02:02:49;;;;;;;7.40;6.72;;;;;;;24.27;73.86;100684.03;4990829;28;102338;-57
2021/08/03 02:05:16;;;;;;;6.93;6.32;;;;;;;24.27;74.16;100675.69;4988750;28;102565;-56
2021/08/03 02:07:45;;;;;;;7.25;6.63;;;;;;;24.28;73.97;100680.13;4991875;28;102474;-56
2021/08/03 02:10:12;;;;;;;7.40;6.70;;;;;;;24.29;74.23;100687.28;4985471;28;103823;-56
2021/08/03 02:12:39;;;;;;;7.15;6.22;;;;;;;24.28;74.28;100680.13;4983374;28;102575;-56
2021/08/03 02:15:07;;;;;;;7.35;6.60;;;;;;;24.28;74.18;100685.69;4994013;28;102540;-57
2021/08/03 02:17:34;;;;;;;8.47;6.67;;;;;;;24.28;74.04;100696.81;4989074;28;102369;-56
2021/08/03 02:20:06;;;;;;;6.47;5.97;;;;;;;24.28;74.27;100702.38;4988997;28;103915;-56
2021/08/03 02:22:34;;;;;;;7.43;6.70;;;;;;;24.28;74.23;100696.81;4989623;28;102383;-56
2021/08/03 02:25:01;;;;;;;6.70;6.10;;;;;;;24.27;74.28;100701.56;4988463;28;102668;-57
2021/08/03 02:27:28;;;;;;;7.13;6.43;;;;;;;24.27;74.24;100709.06;4989037;28;102577;-56
2021/08/03 02:29:56;;;;;;;7.30;6.60;;;;;;;24.27;74.05;100707.13;4986402;28;103915;-56
2021/08/03 02:32:30;;;;;;;7.47;6.80;;;;;;;24.28;74.25;100724.63;4990064;28;102325;-56
2021/08/03 02:35:03;;;;;;;7.82;6.38;;;;;;;24.27;74.13;100731.31;4990793;28;102627;-57
2021/08/03 02:37:34;;;;;;;7.13;6.53;;;;;;;24.27;74.06;100734.09;4990887;28;102053;-57
2021/08/03 02:40:03;;;;;;;7.60;6.90;;;;;;;24.27;74.15;100736.88;4999123;28;104766;-57
2021/08/03 02:42:32;;;;;;;7.05;6.45;;;;;;;24.26;74.08;100738.06;4989248;28;104141;-56
2021/08/03 02:45:02;;;;;;;7.40;6.70;;;;;;;24.27;74.36;100736.88;4985001;28;102109;-56
2021/08/03 02:47:37;;;;;;;7.40;6.70;;;;;;;24.26;74.21;100732.50;4987954;28;102741;-57
2021/08/03 02:50:06;;;;;;;6.80;6.20;;;;;;;24.27;74.09;100723.81;4987086;28;103859;-57
2021/08/03 02:52:37;;;;;;;7.60;6.65;;;;;;;24.27;74.13;100729.38;4974695;28;102496;-56
2021/08/03 02:55:08;;;;;;;7.10;6.40;;;;;;;24.26;74.12;100730.53;4987727;28;103377;-56
2021/08/03 02:57:38;;;;;;;7.30;6.68;;;;;;;24.27;74.06;100734.09;4987301;28;102633;-56
2021/08/03 03:00:07;;;;;;;6.90;6.30;;;;;;;24.25;74.32;100733.69;4985596;28;103815;-56
2021/08/03 03:02:37;;;;;;;7.30;6.60;;;;;;;24.26;74.32;100736.09;4988160;28;102343;-56
2021/08/03 03:05:09;;;;;;;7.68;6.97;;;;;;;24.27;74.27;100734.94;4988371;28;102650;-57
2021/08/03 03:07:41;;;;;;;7.65;6.47;;;;;;;24.26;74.33;100738.06;4988738;28;101956;-56
2021/08/03 03:10:15;;;;;;;7.32;6.55;;;;;;;24.27;74.26;100739.66;4987768;28;103953;-55
2021/08/03 03:12:47;;;;;;;7.90;7.07;;;;;;;24.26;74.33;100760.31;4989160;28;102362;-56
2021/08/03 03:15:17;;;;;;;7.68;6.72;;;;;;;24.24;74.32;100768.22;4986387;28;102511;-56
2021/08/03 03:17:45;;;;;;;7.40;6.80;;;;;;;24.24;74.15;100773.78;4989215;28;102662;-56
2021/08/03 03:20:13;;;;;;;7.90;7.10;;;;;;;24.23;74.35;100767.38;4984188;28;102798;-57
2021/08/03 03:22:44;;;;;;;8.68;6.90;;;;;;;24.23;74.08;100770.16;4988062;28;102609;-56
2021/08/03 03:25:14;;;;;;;6.50;5.90;;;;;;;24.24;74.27;100791.28;4984055;28;102657;-56
2021/08/03 03:27:43;;;;;;;7.45;6.53;;;;;;;24.26;74.41;100804.81;4988089;28;102556;-56
2021/08/03 03:30:13;;;;;;;7.00;6.40;;;;;;;24.27;74.19;100806.41;4976844;28;104020;-56
2021/08/03 03:32:41;;;;;;;7.22;6.63;;;;;;;24.26;74.32;100827.06;4981998;28;102441;-56
2021/08/03 03:35:09;;;;;;;7.13;6.43;;;;;;;24.24;74.54;100819.09;4981827;28;102820;-57
2021/08/03 03:37:36;;;;;;;7.18;6.47;;;;;;;24.24;74.23;100824.66;4987224;28;102320;-56
2021/08/03 03:40:05;;;;;;;6.80;6.22;;;;;;;24.23;74.36;100839.69;4985032;28;104109;-56
2021/08/03 03:42:34;;;;;;;7.30;6.68;;;;;;;24.22;74.29;100844.44;4986696;28;102429;-56
2021/08/03 03:45:01;;;;;;;6.97;6.32;;;;;;;24.21;74.50;100845.63;4979928;28;102602;-57
2021/08/03 03:47:30;;;;;;;7.55;6.85;;;;;;;24.24;74.31;100844.09;4988549;28;102833;-56
2021/08/03 03:50:01;;;;;;;7.13;6.53;;;;;;;24.24;74.60;100852.44;4979525;28;103950;-57
2021/08/03 03:52:36;;;;;;;7.13;6.43;;;;;;;24.24;74.39;100852.44;4985314;28;102435;-56
2021/08/03 03:55:09;;;;;;;7.20;6.50;;;;;;;24.24;74.59;100857.22;4984970;28;102115;-56
2021/08/03 03:57:37;;;;;;;7.10;6.45;;;;;;;24.25;74.42;100858.81;4987211;28;102445;-56
2021/08/03 04:00:05;;;;;;;6.55;6.03;;;;;;;24.24;74.42;100866.34;4981951;28;104445;-56
2021/08/03 04:02:33;;;;;;;7.60;6.90;;;;;;;24.24;74.29;100862.78;4983374;28;102528;-57
2021/08/03 04:05:02;;;;;;;6.97;6.30;;;;;;;24.24;74.48;100868.34;4978360;28;103704;-56
2021/08/03 04:07:29;;;;;;;;;;;;;;;24.24;74.33;100862.78;4990320;28;102188;-57
2021/08/03 04:10:06;;;;;;;6.78;6.18;;;;;;;24.24;74.60;100852.44;4985298;28;103912;-56
2021/08/03 04:12:32;;;;;;;7.35;6.65;;;;;;;24.25;74.51;100856.03;4982299;28;102733;-56
2021/08/03 04:15:10;;;;;;;7.10;6.50;;;;;;;24.25;74.38;100848.50;4981384;28;102584;-57
2021/08/03 04:17:43;;;;;;;7.00;6.30;;;;;;;24.26;74.52;100849.31;4988920;28;102712;-57
2021/08/03 04:20:10;;;;;;;7.32;6.63;;;;;;;24.24;74.61;100834.97;4986280;28;103888;-56
2021/08/03 04:22:37;;;;;;;7.03;6.32;;;;;;;24.25;74.23;100831.00;4984345;28;102258;-56
2021/08/03 04:25:06;;;;;;;7.10;6.40;;;;;;;24.22;74.61;100833.34;4988276;28;102129;-57
2021/08/03 04:27:40;;;;;;;7.00;6.40;;;;;;;24.22;74.45;100827.75;4986849;28;102570;-57
2021/08/03 04:30:10;;;;;;;9.73;6.82;;;;;;;24.22;74.54;100827.75;4981973;28;103733;-57
2021/08/03 04:32:37;;;;;;;7.25;6.65;;;;;;;24.25;74.36;100825.44;4981388;28;102224;-57
2021/08/03 04:35:05;;;;;;;7.25;6.60;;;;;;;24.24;74.50;100830.22;4987457;28;102164;-57
2021/08/03 04:37:37;;;;;;;7.22;6.53;;;;;;;24.22;74.54;100827.75;4985690;28;102474;-57
2021/08/03 04:40:10;;;;;;;7.55;6.82;;;;;;;24.24;74.39;100829.41;4993803;28;103712;-57
2021/08/03 04:42:37;;;;;;;7.35;6.65;;;;;;;24.24;74.48;100823.84;4998723;28;102622;-57
2021/08/03 04:45:05;;;;;;;7.68;6.97;;;;;;;24.24;74.41;100823.84;4998618;28;102568;-56
2021/08/03 04:47:31;;;;;;;7.93;7.10;;;;;;;24.21;74.35;100817.03;4991275;28;102167;-57
2021/08/03 04:49:58;;;;;;;8.07;7.28;;;;;;;24.25;74.56;100817.09;4987968;28;104152;-57
2021/08/03 04:52:25;;;;;;;7.25;6.55;;;;;;;24.24;74.39;100818.28;4989180;28;102686;-56
2021/08/03 04:54:52;;;;;;;7.00;6.40;;;;;;;24.22;74.55;100822.22;4985777;28;102571;-56
2021/08/03 04:57:20;;;;;;;7.78;7.07;;;;;;;24.22;74.32;100836.13;4991853;28;102519;-56
2021/08/03 04:59:46;;;;;;;7.70;6.97;;;;;;;24.23;74.34;100831.34;4985692;28;103892;-57
2021/08/03 05:02:13;;;;;;;8.00;7.20;;;;;;;24.24;74.38;100832.19;4990225;28;102263;-57
2021/08/03 05:04:40;;;;;;;7.57;6.88;;;;;;;24.22;74.46;100838.88;4989468;28;102597;-56
2021/08/03 05:07:11;;;;;;;7.30;6.60;;;;;;;24.22;74.64;100852.78;4984340;28;103445;-57
2021/08/03 05:09:39;;;;;;;8.95;6.72;;;;;;;24.21;74.41;100859.53;4980393;28;103907;-56
2021/08/03 05:12:06;;;;;;;7.38;6.68;;;;;;;24.20;74.51;100859.91;4983995;28;102113;-59
2021/08/03 05:14:34;;;;;;;7.90;7.22;;;;;;;24.19;74.43;100864.63;4987057;28;102574;-57
2021/08/03 05:17:01;;;;;;;;;;;;;;;24.18;74.21;100865.81;4993066;28;101891;-57
2021/08/03 05:19:28;;;;;;;7.30;6.60;;;;;;;24.21;74.64;100867.88;4988619;28;103948;-57
2021/08/03 05:21:54;;;;;;;7.53;6.85;;;;;;;24.19;74.57;100867.41;4991728;28;102805;-57
2021/08/03 05:24:25;;;;;;;7.85;7.15;;;;;;;24.20;74.47;100869.06;4985258;28;102595;-57
2021/08/03 05:26:52;;;;;;;8.43;7.63;;;;;;;24.20;74.55;100879.38;4979701;28;102501;-57
2021/08/03 05:29:19;;;;;;;7.40;6.70;;;;;;;24.21;74.46;100890.13;4983660;28;103947;-56
2021/08/03 05:31:50;;;;;;;8.20;7.40;;;;;;;24.22;74.56;100883.38;4984327;28;102589;-57
2021/08/03 05:34:16;;;;;;;9.07;7.70;;;;;;;24.22;74.27;100883.38;4983927;28;103830;-57
2021/08/03 05:36:43;;;;;;;8.35;7.63;;;;;;;24.22;74.27;100882.59;4988920;28;102702;-57
2021/08/03 05:39:09;;;;;;;8.43;7.63;;;;;;;24.22;74.32;100879.81;4985633;28;103961;-56
2021/08/03 05:41:36;;;;;;;9.55;7.57;;;;;;;24.22;74.22;100877.81;4988669;28;102605;-56
2021/08/03 05:44:02;;;;;;;8.50;7.72;;;;;;;24.21;74.31;100881.78;4988502;28;102598;-57
2021/08/03 05:46:31;;;;;;;8.50;7.70;;;;;;;24.21;74.65;100876.22;4990612;28;102603;-57
2021/08/03 05:48:59;;;;;;;8.23;7.43;;;;;;;24.21;74.71;100892.91;4988211;28;104016;-56
2021/08/03 05:51:25;;;;;;;8.27;7.45;;;;;;;24.21;74.45;100895.69;4982881;28;102331;-56
2021/08/03 05:53:52;;;;;;;8.55;7.75;;;;;;;24.20;74.59;100899.63;4988730;28;102093;-56
2021/08/03 05:56:18;;;;;;;9.27;8.43;;;;;;;24.19;74.68;100895.22;4992920;28;102950;-56
2021/08/03 05:58:45;;;;;;;8.55;7.75;;;;;;;24.21;74.46;100892.09;4990121;28;104176;-56
2021/08/03 06:01:11;;;;;;;8.80;7.07;;;;;;;24.19;74.60;100889.66;4985285;28;102202;-56
2021/08/03 06:03:38;;;;;;;8.85;7.72;;;;;;;24.21;74.57;100903.22;4990734;28;102490;-56
2021/08/03 06:06:07;;;;;;;8.70;7.85;;;;;;;24.21;74.57;100903.22;4983943;28;103214;-57
2021/08/03 06:08:42;;;;;;;8.05;7.40;;;;;;;24.19;74.43;100909.13;4984166;28;104207;-56
2021/08/03 06:11:14;;;;;;;8.50;7.70;;;;;;;24.21;74.64;100897.66;4988374;28;102674;-56
2021/08/03 06:13:47;;;;;;;8.13;7.32;;;;;;;24.21;74.33;100911.56;4983223;28;102245;-57
2021/08/03 06:16:17;;;;;;;8.73;8.02;;;;;;;24.19;74.39;100922.22;4977863;28;102809;-56
2021/08/03 06:18:45;;;;;;;9.35;8.45;;;;;;;24.20;74.72;100923.88;4983193;28;104008;-56
2021/08/03 06:21:14;;;;;;;7.85;7.15;;;;;;;24.19;74.47;100931.38;4976841;28;102333;-56
2021/08/03 06:23:44;;;;;;;8.23;7.45;;;;;;;24.18;74.60;100921.44;4981874;28;103023;-57
2021/08/03 06:26:11;;;;;;;8.57;7.78;;;;;;;24.18;74.52;100927.00;4985113;28;102263;-56
2021/08/03 06:28:39;;;;;;;8.48;7.78;;;;;;;24.18;74.67;100924.22;4981504;28;104319;-56
2021/08/03 06:31:06;;;;;;;8.98;8.05;;;;;;;24.17;74.42;100930.94;4983325;28;102422;-56
2021/08/03 06:33:33;;;;;;;7.75;7.05;;;;;;;24.19;74.59;100934.16;4987424;28;102748;-56
2021/08/03 06:35:59;;;;;;;11.38;8.32;;;;;;;24.18;74.38;100938.09;4985052;28;102657;-56
2021/08/03 06:38:27;;;;;;;11.45;8.30;;;;;;;24.18;74.59;100920.63;4994153;28;103930;-56
2021/08/03 06:41:00;;;;;;;7.95;7.15;;;;;;;24.18;74.72;100899.19;4988219;28;102188;-57
2021/08/03 06:43:35;;;;;;;8.45;7.55;;;;;;;24.19;74.46;100884.09;4981277;28;104679;-58
2021/08/03 06:46:06;;;;;;;8.90;8.10;;;;;;;24.19;74.47;100852.72;4985043;28;102707;-57
2021/08/03 06:48:38;;;;;;;8.55;7.72;;;;;;;24.18;74.47;100845.53;4988860;28;103971;-57
2021/08/03 06:51:08;;;;;;;8.95;8.05;;;;;;;24.17;74.59;100839.19;4986314;28;102644;-56
2021/08/03 06:53:37;;;;;;;8.90;8.00;;;;;;;24.17;74.33;100835.59;4983979;28;102106;-56
2021/08/03 06:56:04;;;;;;;8.98;8.07;;;;;;;24.17;74.56;100841.97;4984881;28;102543;-56
2021/08/03 06:58:38;;;;;;;8.93;8.15;;;;;;;24.16;74.27;100851.47;4984738;28;102433;-56
2021/08/03 07:01:07;;;;;;;9.13;8.23;;;;;;;24.17;74.40;100863.41;4985918;28;103427;-56
2021/08/03 07:03:45;;;;;;;8.98;8.18;;;;;;;24.17;74.33;100864.22;4988308;28;102170;-57
2021/08/03 07:06:14;;;;;;;8.60;7.90;;;;;;;24.17;74.21;100864.22;4989047;28;102094;-56
2021/08/03 07:08:42;;;;;;;;;;;;;;;24.17;74.13;100875.31;4987008;28;104018;-56
2021/08/03 07:11:09;;;;;;;9.17;8.30;;;;;;;24.17;74.25;100891.22;4984320;28;102652;-57
2021/08/03 07:13:37;;;;;;;8.25;7.55;;;;;;;24.18;74.38;100899.19;4980546;28;102160;-56
2021/08/03 07:16:04;;;;;;;10.10;7.97;;;;;;;24.19;74.42;100908.31;4988531;28;102547;-56
2021/08/03 07:18:32;;;;;;;8.63;7.72;;;;;;;24.19;74.33;100906.34;4984714;28;103010;-57
2021/08/03 07:20:59;;;;;;;8.77;7.80;;;;;;;24.20;74.31;100904.41;4985025;28;102450;-57
2021/08/03 07:23:27;;;;;;;8.55;7.85;;;;;;;24.22;74.47;100910.38;4973308;28;102531;-56
2021/08/03 07:25:55;;;;;;;8.77;7.97;;;;;;;24.21;74.08;100912.38;4986464;28;102262;-57
2021/08/03 07:28:22;;;;;;;9.27;8.43;;;;;;;24.19;73.92;100917.47;4986519;28;103963;-57
2021/08/03 07:30:48;;;;;;;9.10;8.20;;;;;;;24.19;74.12;100916.66;4984727;28;102390;-57
2021/08/03 07:33:16;;;;;;;8.82;8.02;;;;;;;24.21;74.58;100917.94;4985409;28;102605;-57
2021/08/03 07:35:44;;;;;;;9.50;8.60;;;;;;;24.21;73.86;100931.84;4988379;28;102766;-57
2021/08/03 07:38:11;;;;;;;9.18;8.30;;;;;;;24.21;73.96;100929.06;4984184;28;103684;-57
2021/08/03 07:40:41;;;;;;;9.18;8.27;;;;;;;24.24;74.02;100935.06;4986002;28;102899;-57
2021/08/03 07:43:09;;;;;;;9.35;8.48;;;;;;;24.25;74.05;100931.94;4981969;28;102388;-56
2021/08/03 07:45:37;;;;;;;8.93;8.10;;;;;;;24.27;74.09;100928.78;4984555;28;102522;-57
2021/08/03 07:48:05;;;;;;;9.02;8.25;;;;;;;24.27;73.79;100934.34;4985675;28;103725;-57
2021/08/03 07:50:31;;;;;;;9.55;8.65;;;;;;;24.27;73.91;100934.34;4983002;28;102383;-56
2021/08/03 07:52:59;;;;;;;8.68;7.90;;;;;;;24.27;74.19;100945.47;4979539;28;102373;-58
2021/08/03 07:55:25;;;;;;;9.40;8.55;;;;;;;24.26;74.23;100941.06;4986459;28;102649;-57
2021/08/03 07:57:51;;;;;;;9.73;8.85;;;;;;;24.24;74.15;100940.63;4987134;28;103946;-57
2021/08/03 08:00:20;;;;;;;8.80;8.00;;;;;;;24.24;74.33;100941.44;4981146;28;102638;-57
2021/08/03 08:02:46;;;;;;;9.23;8.30;;;;;;;24.24;74.23;100943.41;4985655;28;102586;-56
2021/08/03 08:05:12;;;;;;;8.60;7.90;;;;;;;24.24;74.39;100951.75;4987886;28;102346;-57
2021/08/03 08:07:40;;;;;;;9.00;8.20;;;;;;;24.24;74.03;100965.66;4977326;28;104001;-56
2021/08/03 08:10:07;;;;;;;9.60;8.70;;;;;;;24.22;74.22;100982.69;4984197;28;102409;-56
2021/08/03 08:12:33;;;;;;;9.00;8.15;;;;;;;24.24;74.16;100982.34;4986966;28;103408;-57
2021/08/03 08:15:00;;;;;;;8.80;8.02;;;;;;;24.24;74.49;100987.91;4986647;28;102252;-59
2021/08/03 08:17:28;;;;;;;8.95;8.23;;;;;;;24.23;74.17;100989.88;4985146;28;104103;-57
2021/08/03 08:19:56;;;;;;;8.73;7.95;;;;;;;24.22;74.10;100989.06;4982816;28;102286;-57
2021/08/03 08:22:22;;;;;;;8.82;8.13;;;;;;;24.25;73.89;100981.19;4983562;28;103400;-57
2021/08/03 08:24:49;;;;;;;9.43;8.60;;;;;;;24.24;74.17;100971.22;4982413;28;102804;-57
2021/08/03 08:27:15;;;;;;;8.95;8.15;;;;;;;24.27;74.22;100967.72;4980900;28;103897;-57
2021/08/03 08:29:42;;;;;;;8.75;7.95;;;;;;;24.28;73.95;100969.34;4987244;28;102281;-57
2021/08/03 08:32:09;;;;;;;8.38;7.57;;;;;;;24.29;74.14;100965.38;4984708;28;102253;-57
2021/08/03 08:34:38;;;;;;;9.30;8.50;;;;;;;24.28;74.11;100961.00;4987065;28;102247;-57
2021/08/03 08:37:07;;;;;;;8.77;7.97;;;;;;;24.29;74.01;100960.63;4984222;28;103992;-56
2021/08/03 08:39:33;;;;;;;8.70;7.90;;;;;;;24.30;74.01;100958.66;4983414;28;102768;-56
2021/08/03 08:42:00;;;;;;;8.80;8.00;;;;;;;24.31;74.11;100958.31;4981753;28;102277;-56
2021/08/03 08:44:28;;;;;;;8.85;8.05;;;;;;;24.33;73.91;100952.38;4983994;28;102640;-57
2021/08/03 08:46:58;;;;;;;8.80;8.10;;;;;;;24.34;73.95;100951.19;4986081;28;103938;-57
2021/08/03 08:49:26;;;;;;;8.30;7.60;;;;;;;24.35;74.04;100956.41;4987791;28;102534;-57
2021/08/03 08:51:55;;;;;;;9.00;8.20;;;;;;;24.35;73.78;100947.28;4981618;28;101963;-57
2021/08/03 08:54:22;;;;;;;9.25;8.48;;;;;;;24.35;73.77;100958.41;4985988;28;102674;-57
2021/08/03 08:56:48;;;;;;;8.95;8.15;;;;;;;24.37;74.15;100961.63;4984574;28;103939;-57
2021/08/03 08:59:15;;;;;;;8.90;8.10;;;;;;;24.37;74.01;100956.84;4980145;28;102486;-56
2021/08/03 09:01:42;;;;;;;9.38;8.32;;;;;;;24.38;73.78;100964.06;4976361;28;102632;-56
2021/08/03 09:04:08;;;;;;;8.75;7.93;;;;;;;24.37;74.03;100962.41;4986382;28;102475;-57
2021/08/03 09:06:36;;;;;;;9.40;8.50;;;;;;;24.38;73.82;100954.91;4984034;28;103776;-56
2021/08/03 09:09:14;;;;;;;8.63;7.93;;;;;;;24.39;73.92;100960.13;4982300;28;102563;-57
2021/08/03 09:11:59;;;;;;;9.45;8.65;;;;;;;24.39;74.06;100964.84;4981214;28;102939;-57
2021/08/03 09:14:35;;;;;;;8.75;8.00;;;;;;;24.40;73.85;100958.16;4982044;28;103938;-58
2021/08/03 09:17:03;;;;;;;8.90;8.20;;;;;;;24.41;73.76;100956.97;4984064;28;103911;-57
2021/08/03 09:19:35;;;;;;;9.50;8.70;;;;;;;24.40;73.87;100956.16;4982887;28;102536;-57
2021/08/03 09:22:18;;;;;;;8.52;7.93;;;;;;;24.40;73.84;100955.38;4983002;28;102641;-57
2021/08/03 09:24:48;;;;;;;9.38;8.68;;;;;;;24.39;73.83;100964.84;4985541;28;102636;-56
2021/08/03 09:27:38;;;;;;;8.93;8.23;;;;;;;24.40;73.98;100949.81;4977325;28;104157;-57
2021/08/03 09:30:07;;;;;;;8.82;8.10;;;;;;;24.40;73.92;100955.38;4984711;28;102142;-57
2021/08/03 09:32:35;;;;;;;8.93;8.23;;;;;;;24.40;73.79;100956.16;4978658;28;102809;-57
2021/08/03 09:35:09;;;;;;;;;;;;;;;24.40;73.57;100950.59;4985332;28;102443;-57
2021/08/03 09:37:36;;;;;;;9.10;8.30;;;;;;;24.40;74.02;100947.81;4984900;28;103908;-57
2021/08/03 09:40:06;;;;;;;8.85;8.05;;;;;;;24.39;74.07;100946.22;4985346;28;102269;-57
2021/08/03 09:42:34;;;;;;;9.52;8.73;;;;;;;24.38;73.70;100949.34;4983979;28;102346;-56
2021/08/03 09:45:03;;;;;;;9.98;8.98;;;;;;;24.39;73.85;100942.59;4981950;28;102655;-57
2021/08/03 09:47:31;;;;;;;8.80;8.10;;;;;;;24.38;73.86;100941.81;4984703;28;102880;-57
2021/08/03 09:49:59;;;;;;;;;;;;;;;24.39;73.72;100942.59;4981861;28;102600;-57
2021/08/03 09:52:27;;;;;;;9.23;8.43;;;;;;;24.38;73.90;100952.13;4982928;28;102659;-57
2021/08/03 09:55:10;;;;;;;9.65;8.70;;;;;;;24.37;73.92;100950.50;4990147;28;102452;-57
2021/08/03 09:57:38;;;;;;;8.60;8.00;;;;;;;24.37;73.86;100953.28;4985575;28;103957;-59
2021/08/03 10:00:27;;;;;;;9.40;8.60;;;;;;;24.38;73.97;100943.78;4992677;28;102425;-56
2021/08/03 10:02:54;;;;;;;8.90;8.10;;;;;;;24.39;73.81;100942.59;4996630;28;102216;-57
2021/08/03 10:05:22;;;;;;;9.05;8.35;;;;;;;24.39;73.83;100937.03;4994057;28;102290;-57
2021/08/03 10:07:49;;;;;;;8.32;7.72;;;;;;;24.37;73.77;100933.78;4993467;28;102949;-57
2021/08/03 10:10:17;;;;;;;9.43;8.52;;;;;;;24.38;74.01;100935.44;4999195;28;102860;-55
2021/08/03 10:12:44;;;;;;;8.77;8.03;;;;;;;24.38;74.05;100929.88;4985097;28;105689;-59
2021/08/03 10:15:12;;;;;;;8.75;8.10;;;;;;;24.39;73.69;100925.91;4993120;28;102997;-57
2021/08/03 10:17:40;;;;;;;9.25;8.45;;;;;;;24.40;73.72;100927.56;4991961;28;103980;-57
2021/08/03 10:20:09;;;;;;;9.03;8.23;;;;;;;24.38;73.52;100919.53;4993578;28;102805;-59
2021/08/03 10:22:39;;;;;;;9.35;8.65;;;;;;;24.38;73.86;100918.75;4993481;28;102639;-57
2021/08/03 10:25:13;;;;;;;8.82;8.13;;;;;;;24.40;73.77;100927.56;4993439;28;102151;-57
2021/08/03 10:27:43;;;;;;;8.55;7.85;;;;;;;24.39;73.72;100937.88;5001393;28;102964;-56
2021/08/03 10:30:34;;;;;;;8.73;8.00;;;;;;;24.39;73.54;100931.47;4992092;28;102462;-57
2021/08/03 10:33:04;;;;;;;9.15;8.35;;;;;;;24.37;73.63;100925.44;4989109;28;102395;-57
2021/08/03 10:35:47;;;;;;;8.73;8.05;;;;;;;24.38;73.65;100927.88;4992297;28;102665;-57
2021/08/03 10:38:16;;;;;;;9.30;8.57;;;;;;;24.37;73.59;100922.66;4976363;28;105249;-60
2021/08/03 10:41:16;;;;;;;9.13;8.25;;;;;;;24.37;73.84;100933.78;4980715;28;102878;-57
2021/08/03 10:43:48;;;;;;;9.10;8.40;;;;;;;24.37;73.60;100939.34;4983852;28;102555;-58
2021/08/03 10:46:35;;;;;;;9.23;8.43;;;;;;;24.37;73.72;100931.00;4982754;28;102487;-57
2021/08/03 10:49:02;;;;;;;9.15;8.45;;;;;;;24.37;74.16;100926.25;4989289;28;103914;-56
2021/08/03 10:51:39;;;;;;;9.50;8.70;;;;;;;24.37;73.64;100928.22;4988851;28;102416;-56
2021/08/03 10:54:08;;;;;;;9.40;8.60;;;;;;;24.37;73.66;100939.34;4988057;28;102018;-56
2021/08/03 10:57:16;;;;;;;9.32;8.43;;;;;;;24.37;73.77;100939.34;4989454;28;102637;-57
2021/08/03 10:59:46;;;;;;;9.02;8.20;;;;;;;24.36;73.51;100948.88;4983469;28;102975;-56
2021/08/03 11:02:46;;;;;;;9.10;8.38;;;;;;;24.36;73.77;100944.13;4989676;28;102713;-57
2021/08/03 11:05:29;;;;;;;9.45;8.70;;;;;;;24.36;74.05;100948.88;4988060;28;102284;-56
2021/08/03 11:07:56;;;;;;;10.00;9.20;;;;;;;24.36;73.68;100960.00;4981702;28;104433;-56
2021/08/03 11:10:32;;;;;;;9.40;8.60;;;;;;;24.36;73.63;100971.94;4986009;28;104150;-56
2021/08/03 11:12:59;;;;;;;9.48;8.65;;;;;;;24.36;73.64;100971.94;4986437;28;102473;-56
2021/08/03 11:15:40;;;;;;;9.45;8.75;;;;;;;24.36;73.76;100965.56;4986532;28;102287;-56
2021/08/03 11:18:10;;;;;;;9.10;8.40;;;;;;;24.36;73.73;100976.69;4986454;28;102361;-56
2021/08/03 11:21:01;;;;;;;9.18;8.43;;;;;;;24.36;73.72;100974.72;4992982;28;103999;-57
2021/08/03 11:23:59;;;;;;;10.52;9.57;;;;;;;24.36;73.65;100968.34;4978226;28;102732;-56
2021/08/03 11:26:28;;;;;;;9.77;8.70;;;;;;;24.34;73.75;100981.78;4987448;28;102561;-56
2021/08/03 11:28:56;;;;;;;;;;;;;;;24.34;73.30;100973.44;4988972;28;102408;-56
2021/08/03 11:31:47;;;;;;;10.15;9.25;;;;;;;24.34;73.70;100979.00;4984771;28;103907;-57
2021/08/03 11:34:16;;;;;;;9.63;8.85;;;;;;;24.35;73.48;100977.88;4987920;28;102378;-56